sensor_id;sensor_type;location;lat;lon;timestamp;P1;durP1;ratioP1;P2;durP2;ratioP2
34902;SDS011;21114;44.840;0.214;2022-12-24T00:02:44;12.43;;;3.53;;
34902;SDS011;21114;44.840;0.214;2022-12-24T00:05:10;8.23;;;3.78;;
34902;SDS011;21114;44.840;0.214;2022-12-24T00:07:36;10.65;;;4.47;;
34902;SDS011;21114;44.840;0.214;2022-12-24T00:10:03;5.72;;;3.50;;
34902;SDS011;21114;44.840;0.214;2022-12-24T00:13:18;7.28;;;3.20;;
34902;SDS011;21114;44.840;0.214;2022-12-24T00:16:33;14.50;;;5.30;;
34902;SDS011;21114;44.840;0.214;2022-12-24T00:18:59;11.50;;;4.85;;
34902;SDS011;21114;44.840;0.214;2022-12-24T00:21:25;9.02;;;3.65;;
34902;SDS011;21114;44.840;0.214;2022-12-24T00:23:51;11.38;;;4.35;;
34902;SDS011;21114;44.840;0.214;2022-12-24T00:26:17;11.60;;;4.13;;
34902;SDS011;21114;44.840;0.214;2022-12-24T00:28:43;8.15;;;3.58;;
34902;SDS011;21114;44.840;0.214;2022-12-24T00:31:11;11.43;;;4.05;;
34902;SDS011;21114;44.840;0.214;2022-12-24T00:34:26;10.48;;;4.28;;
34902;SDS011;21114;44.840;0.214;2022-12-24T00:36:52;7.15;;;3.38;;
34902;SDS011;21114;44.840;0.214;2022-12-24T00:39:18;6.50;;;3.60;;
34902;SDS011;21114;44.840;0.214;2022-12-24T00:41:44;8.85;;;3.65;;
34902;SDS011;21114;44.840;0.214;2022-12-24T00:44:11;7.00;;;3.55;;
34902;SDS011;21114;44.840;0.214;2022-12-24T00:46:38;10.73;;;4.07;;
34902;SDS011;21114;44.840;0.214;2022-12-24T00:49:52;5.82;;;3.72;;
34902;SDS011;21114;44.840;0.214;2022-12-24T00:52:19;10.57;;;4.70;;
34902;SDS011;21114;44.840;0.214;2022-12-24T00:54:45;7.95;;;4.75;;
34902;SDS011;21114;44.840;0.214;2022-12-24T00:57:11;9.90;;;5.18;;
34902;SDS011;21114;44.840;0.214;2022-12-24T00:59:37;11.68;;;4.28;;
34902;SDS011;21114;44.840;0.214;2022-12-24T01:02:03;6.88;;;4.13;;
34902;SDS011;21114;44.840;0.214;2022-12-24T01:04:29;9.90;;;4.38;;
34902;SDS011;21114;44.840;0.214;2022-12-24T01:07:23;7.78;;;3.95;;
34902;SDS011;21114;44.840;0.214;2022-12-24T01:09:49;7.05;;;4.03;;
34902;SDS011;21114;44.840;0.214;2022-12-24T01:12:15;8.32;;;3.13;;
34902;SDS011;21114;44.840;0.214;2022-12-24T01:14:41;10.38;;;4.70;;
34902;SDS011;21114;44.840;0.214;2022-12-24T01:17:08;7.30;;;3.67;;
34902;SDS011;21114;44.840;0.214;2022-12-24T01:19:34;8.00;;;4.18;;
34902;SDS011;21114;44.840;0.214;2022-12-24T01:22:00;6.43;;;4.18;;
34902;SDS011;21114;44.840;0.214;2022-12-24T01:24:26;13.68;;;4.43;;
34902;SDS011;21114;44.840;0.214;2022-12-24T01:26:52;13.70;;;4.75;;
34902;SDS011;21114;44.840;0.214;2022-12-24T01:29:18;11.27;;;3.88;;
34902;SDS011;21114;44.840;0.214;2022-12-24T01:31:45;8.68;;;3.50;;
34902;SDS011;21114;44.840;0.214;2022-12-24T01:34:11;8.85;;;3.72;;
34902;SDS011;21114;44.840;0.214;2022-12-24T01:36:37;7.43;;;3.03;;
34902;SDS011;21114;44.840;0.214;2022-12-24T01:39:03;8.45;;;3.85;;
34902;SDS011;21114;44.840;0.214;2022-12-24T01:42:38;7.88;;;3.38;;
34902;SDS011;21114;44.840;0.214;2022-12-24T01:45:37;8.73;;;3.75;;
34902;SDS011;21114;44.840;0.214;2022-12-24T01:51:33;9.32;;;3.25;;
34902;SDS011;21114;44.840;0.214;2022-12-24T01:54:49;8.93;;;5.03;;
34902;SDS011;21114;44.840;0.214;2022-12-24T01:58:05;8.20;;;4.32;;
34902;SDS011;21114;44.840;0.214;2022-12-24T02:01:20;10.65;;;3.97;;
34902;SDS011;21114;44.840;0.214;2022-12-24T02:04:38;10.50;;;4.35;;
34902;SDS011;21114;44.840;0.214;2022-12-24T02:07:54;8.10;;;3.92;;
34902;SDS011;21114;44.840;0.214;2022-12-24T02:10:20;10.80;;;4.72;;
34902;SDS011;21114;44.840;0.214;2022-12-24T02:12:47;6.95;;;4.53;;
34902;SDS011;21114;44.840;0.214;2022-12-24T02:15:14;5.75;;;3.60;;
34902;SDS011;21114;44.840;0.214;2022-12-24T02:18:39;10.23;;;4.20;;
34902;SDS011;21114;44.840;0.214;2022-12-24T02:21:59;9.57;;;5.72;;
34902;SDS011;21114;44.840;0.214;2022-12-24T02:30:51;10.55;;;5.10;;
34902;SDS011;21114;44.840;0.214;2022-12-24T02:34:13;7.32;;;3.65;;
34902;SDS011;21114;44.840;0.214;2022-12-24T02:37:32;7.95;;;3.20;;
34902;SDS011;21114;44.840;0.214;2022-12-24T02:40:50;8.05;;;2.63;;
34902;SDS011;21114;44.840;0.214;2022-12-24T02:44:38;9.05;;;3.55;;
34902;SDS011;21114;44.840;0.214;2022-12-24T02:47:54;7.10;;;3.10;;
34902;SDS011;21114;44.840;0.214;2022-12-24T02:51:09;7.32;;;3.53;;
34902;SDS011;21114;44.840;0.214;2022-12-24T02:54:24;7.57;;;3.30;;
34902;SDS011;21114;44.840;0.214;2022-12-24T02:59:42;9.82;;;4.80;;
34902;SDS011;21114;44.840;0.214;2022-12-24T03:05:57;9.77;;;3.95;;
34902;SDS011;21114;44.840;0.214;2022-12-24T03:12:10;10.82;;;4.85;;
34902;SDS011;21114;44.840;0.214;2022-12-24T03:15:26;10.77;;;3.88;;
34902;SDS011;21114;44.840;0.214;2022-12-24T03:17:53;11.20;;;4.53;;
34902;SDS011;21114;44.840;0.214;2022-12-24T03:21:11;5.15;;;3.58;;
34902;SDS011;21114;44.840;0.214;2022-12-24T03:24:26;9.45;;;4.75;;
34902;SDS011;21114;44.840;0.214;2022-12-24T03:26:52;8.93;;;4.80;;
34902;SDS011;21114;44.840;0.214;2022-12-24T03:29:19;11.30;;;4.80;;
34902;SDS011;21114;44.840;0.214;2022-12-24T03:31:46;12.18;;;5.28;;
34902;SDS011;21114;44.840;0.214;2022-12-24T03:34:47;8.07;;;3.75;;
34902;SDS011;21114;44.840;0.214;2022-12-24T03:37:13;12.10;;;4.15;;
34902;SDS011;21114;44.840;0.214;2022-12-24T03:40:27;7.57;;;3.30;;
34902;SDS011;21114;44.840;0.214;2022-12-24T03:42:53;12.48;;;4.03;;
34902;SDS011;21114;44.840;0.214;2022-12-24T03:45:19;11.95;;;5.53;;
34902;SDS011;21114;44.840;0.214;2022-12-24T03:47:46;11.32;;;5.25;;
34902;SDS011;21114;44.840;0.214;2022-12-24T03:50:12;8.27;;;3.75;;
34902;SDS011;21114;44.840;0.214;2022-12-24T03:52:38;10.95;;;4.38;;
34902;SDS011;21114;44.840;0.214;2022-12-24T03:55:52;9.32;;;3.28;;
34902;SDS011;21114;44.840;0.214;2022-12-24T03:58:19;9.20;;;4.40;;
34902;SDS011;21114;44.840;0.214;2022-12-24T04:00:45;6.18;;;3.25;;
34902;SDS011;21114;44.840;0.214;2022-12-24T04:03:11;13.82;;;4.50;;
34902;SDS011;21114;44.840;0.214;2022-12-24T04:05:37;13.48;;;3.63;;
34902;SDS011;21114;44.840;0.214;2022-12-24T04:08:03;13.55;;;6.32;;
34902;SDS011;21114;44.840;0.214;2022-12-24T04:10:29;15.70;;;6.60;;
34902;SDS011;21114;44.840;0.214;2022-12-24T04:12:55;12.77;;;6.30;;
34902;SDS011;21114;44.840;0.214;2022-12-24T04:15:21;12.75;;;8.23;;
34902;SDS011;21114;44.840;0.214;2022-12-24T04:17:47;14.57;;;8.70;;
34902;SDS011;21114;44.840;0.214;2022-12-24T04:20:13;18.33;;;8.57;;
34902;SDS011;21114;44.840;0.214;2022-12-24T04:22:39;15.95;;;7.50;;
34902;SDS011;21114;44.840;0.214;2022-12-24T04:25:06;8.77;;;4.25;;
34902;SDS011;21114;44.840;0.214;2022-12-24T04:28:21;11.85;;;6.15;;
34902;SDS011;21114;44.840;0.214;2022-12-24T04:30:47;30.13;;;6.18;;
34902;SDS011;21114;44.840;0.214;2022-12-24T04:33:13;12.70;;;4.10;;
34902;SDS011;21114;44.840;0.214;2022-12-24T04:35:39;11.80;;;5.28;;
34902;SDS011;21114;44.840;0.214;2022-12-24T04:38:54;11.15;;;4.45;;
34902;SDS011;21114;44.840;0.214;2022-12-24T04:41:20;9.07;;;3.90;;
34902;SDS011;21114;44.840;0.214;2022-12-24T04:44:35;10.48;;;3.55;;
34902;SDS011;21114;44.840;0.214;2022-12-24T04:47:01;10.13;;;5.03;;
34902;SDS011;21114;44.840;0.214;2022-12-24T04:49:27;10.40;;;4.00;;
34902;SDS011;21114;44.840;0.214;2022-12-24T04:51:53;8.57;;;3.85;;
34902;SDS011;21114;44.840;0.214;2022-12-24T04:54:19;6.80;;;3.10;;
34902;SDS011;21114;44.840;0.214;2022-12-24T04:56:45;10.40;;;4.15;;
34902;SDS011;21114;44.840;0.214;2022-12-24T04:59:12;10.13;;;3.25;;
34902;SDS011;21114;44.840;0.214;2022-12-24T05:01:38;10.70;;;4.72;;
34902;SDS011;21114;44.840;0.214;2022-12-24T05:04:04;3.85;;;2.03;;
34902;SDS011;21114;44.840;0.214;2022-12-24T05:06:31;11.05;;;4.57;;
34902;SDS011;21114;44.840;0.214;2022-12-24T05:09:45;12.90;;;4.97;;
34902;SDS011;21114;44.840;0.214;2022-12-24T05:12:12;8.63;;;4.13;;
34902;SDS011;21114;44.840;0.214;2022-12-24T05:14:38;8.70;;;2.42;;
34902;SDS011;21114;44.840;0.214;2022-12-24T05:17:53;17.67;;;5.03;;
34902;SDS011;21114;44.840;0.214;2022-12-24T05:20:19;13.10;;;3.78;;
34902;SDS011;21114;44.840;0.214;2022-12-24T05:22:45;5.10;;;2.45;;
34902;SDS011;21114;44.840;0.214;2022-12-24T05:25:39;10.82;;;4.18;;
34902;SDS011;21114;44.840;0.214;2022-12-24T05:28:33;15.65;;;3.40;;
34902;SDS011;21114;44.840;0.214;2022-12-24T05:31:00;9.18;;;4.88;;
34902;SDS011;21114;44.840;0.214;2022-12-24T05:33:26;14.27;;;4.30;;
34902;SDS011;21114;44.840;0.214;2022-12-24T05:35:52;12.85;;;5.22;;
34902;SDS011;21114;44.840;0.214;2022-12-24T05:38:18;5.82;;;3.33;;
34902;SDS011;21114;44.840;0.214;2022-12-24T05:40:44;8.48;;;3.33;;
34902;SDS011;21114;44.840;0.214;2022-12-24T05:43:59;13.23;;;3.50;;
34902;SDS011;21114;44.840;0.214;2022-12-24T05:46:25;9.82;;;4.35;;
34902;SDS011;21114;44.840;0.214;2022-12-24T05:48:51;26.65;;;9.63;;
34902;SDS011;21114;44.840;0.214;2022-12-24T05:51:18;14.23;;;7.28;;
34902;SDS011;21114;44.840;0.214;2022-12-24T05:54:33;15.15;;;5.53;;
34902;SDS011;21114;44.840;0.214;2022-12-24T05:56:59;8.05;;;3.80;;
34902;SDS011;21114;44.840;0.214;2022-12-24T05:59:25;8.98;;;3.10;;
34902;SDS011;21114;44.840;0.214;2022-12-24T06:01:51;7.10;;;3.80;;
34902;SDS011;21114;44.840;0.214;2022-12-24T06:04:17;7.97;;;4.68;;
34902;SDS011;21114;44.840;0.214;2022-12-24T06:06:43;10.68;;;6.15;;
34902;SDS011;21114;44.840;0.214;2022-12-24T06:09:09;10.25;;;4.45;;
34902;SDS011;21114;44.840;0.214;2022-12-24T06:11:36;9.30;;;4.68;;
34902;SDS011;21114;44.840;0.214;2022-12-24T06:14:50;8.60;;;4.13;;
34902;SDS011;21114;44.840;0.214;2022-12-24T06:17:17;10.38;;;4.18;;
34902;SDS011;21114;44.840;0.214;2022-12-24T06:19:43;8.98;;;4.80;;
34902;SDS011;21114;44.840;0.214;2022-12-24T06:22:09;10.52;;;3.90;;
34902;SDS011;21114;44.840;0.214;2022-12-24T06:24:35;9.95;;;3.85;;
34902;SDS011;21114;44.840;0.214;2022-12-24T06:27:01;7.38;;;4.20;;
34902;SDS011;21114;44.840;0.214;2022-12-24T06:29:27;12.43;;;4.28;;
34902;SDS011;21114;44.840;0.214;2022-12-24T06:31:53;12.57;;;4.78;;
34902;SDS011;21114;44.840;0.214;2022-12-24T06:34:20;9.82;;;4.55;;
34902;SDS011;21114;44.840;0.214;2022-12-24T06:36:46;11.25;;;4.68;;
34902;SDS011;21114;44.840;0.214;2022-12-24T06:39:12;8.90;;;3.97;;
34902;SDS011;21114;44.840;0.214;2022-12-24T06:41:38;12.85;;;5.68;;
34902;SDS011;21114;44.840;0.214;2022-12-24T06:44:04;11.13;;;5.15;;
34902;SDS011;21114;44.840;0.214;2022-12-24T06:46:30;7.53;;;3.55;;
34902;SDS011;21114;44.840;0.214;2022-12-24T06:48:57;6.03;;;3.70;;
34902;SDS011;21114;44.840;0.214;2022-12-24T06:51:23;8.20;;;3.50;;
34902;SDS011;21114;44.840;0.214;2022-12-24T06:53:49;9.07;;;3.53;;
34902;SDS011;21114;44.840;0.214;2022-12-24T06:56:15;9.98;;;4.00;;
34902;SDS011;21114;44.840;0.214;2022-12-24T06:59:31;9.80;;;4.07;;
34902;SDS011;21114;44.840;0.214;2022-12-24T07:01:57;7.13;;;3.40;;
34902;SDS011;21114;44.840;0.214;2022-12-24T07:04:23;8.98;;;4.03;;
34902;SDS011;21114;44.840;0.214;2022-12-24T07:06:49;7.80;;;3.70;;
34902;SDS011;21114;44.840;0.214;2022-12-24T07:09:15;13.88;;;5.63;;
34902;SDS011;21114;44.840;0.214;2022-12-24T07:11:42;7.25;;;3.28;;
34902;SDS011;21114;44.840;0.214;2022-12-24T07:14:56;7.25;;;3.83;;
34902;SDS011;21114;44.840;0.214;2022-12-24T07:17:22;8.57;;;3.85;;
34902;SDS011;21114;44.840;0.214;2022-12-24T07:19:48;6.75;;;4.40;;
34902;SDS011;21114;44.840;0.214;2022-12-24T07:22:14;9.05;;;4.22;;
34902;SDS011;21114;44.840;0.214;2022-12-24T07:24:41;16.02;;;5.20;;
34902;SDS011;21114;44.840;0.214;2022-12-24T07:27:07;8.48;;;4.15;;
34902;SDS011;21114;44.840;0.214;2022-12-24T07:29:33;9.80;;;4.95;;
34902;SDS011;21114;44.840;0.214;2022-12-24T07:31:59;15.60;;;6.40;;
34902;SDS011;21114;44.840;0.214;2022-12-24T07:34:25;11.70;;;4.45;;
34902;SDS011;21114;44.840;0.214;2022-12-24T07:36:52;13.05;;;5.30;;
34902;SDS011;21114;44.840;0.214;2022-12-24T07:39:18;10.40;;;4.93;;
34902;SDS011;21114;44.840;0.214;2022-12-24T07:41:44;10.75;;;4.50;;
34902;SDS011;21114;44.840;0.214;2022-12-24T07:44:11;7.38;;;4.57;;
34902;SDS011;21114;44.840;0.214;2022-12-24T07:47:25;9.45;;;4.78;;
34902;SDS011;21114;44.840;0.214;2022-12-24T07:50:40;9.43;;;4.65;;
34902;SDS011;21114;44.840;0.214;2022-12-24T07:53:06;10.50;;;4.80;;
34902;SDS011;21114;44.840;0.214;2022-12-24T07:55:32;7.47;;;4.43;;
34902;SDS011;21114;44.840;0.214;2022-12-24T07:57:58;9.38;;;4.95;;
34902;SDS011;21114;44.840;0.214;2022-12-24T08:00:24;8.85;;;4.30;;
34902;SDS011;21114;44.840;0.214;2022-12-24T08:02:50;12.50;;;4.47;;
34902;SDS011;21114;44.840;0.214;2022-12-24T08:05:16;8.65;;;3.22;;
34902;SDS011;21114;44.840;0.214;2022-12-24T08:07:42;9.50;;;4.25;;
34902;SDS011;21114;44.840;0.214;2022-12-24T08:10:08;11.43;;;3.35;;
34902;SDS011;21114;44.840;0.214;2022-12-24T08:12:35;13.40;;;5.53;;
34902;SDS011;21114;44.840;0.214;2022-12-24T08:15:01;10.05;;;3.38;;
34902;SDS011;21114;44.840;0.214;2022-12-24T08:17:27;12.07;;;4.13;;
34902;SDS011;21114;44.840;0.214;2022-12-24T08:19:53;6.57;;;3.30;;
34902;SDS011;21114;44.840;0.214;2022-12-24T08:22:19;8.77;;;3.65;;
34902;SDS011;21114;44.840;0.214;2022-12-24T08:24:45;12.35;;;4.85;;
34902;SDS011;21114;44.840;0.214;2022-12-24T08:27:11;10.07;;;4.70;;
34902;SDS011;21114;44.840;0.214;2022-12-24T08:29:37;11.82;;;4.45;;
34902;SDS011;21114;44.840;0.214;2022-12-24T08:32:03;10.35;;;4.68;;
34902;SDS011;21114;44.840;0.214;2022-12-24T08:34:29;10.02;;;4.45;;
34902;SDS011;21114;44.840;0.214;2022-12-24T08:36:55;14.05;;;5.80;;
34902;SDS011;21114;44.840;0.214;2022-12-24T08:40:10;12.70;;;5.97;;
34902;SDS011;21114;44.840;0.214;2022-12-24T08:42:36;10.00;;;5.75;;
34902;SDS011;21114;44.840;0.214;2022-12-24T08:45:02;9.77;;;4.18;;
34902;SDS011;21114;44.840;0.214;2022-12-24T08:47:29;9.88;;;4.38;;
34902;SDS011;21114;44.840;0.214;2022-12-24T08:49:55;12.88;;;6.25;;
34902;SDS011;21114;44.840;0.214;2022-12-24T08:52:21;9.63;;;4.95;;
34902;SDS011;21114;44.840;0.214;2022-12-24T08:54:47;6.97;;;4.70;;
34902;SDS011;21114;44.840;0.214;2022-12-24T08:57:13;11.80;;;5.15;;
34902;SDS011;21114;44.840;0.214;2022-12-24T08:59:39;10.18;;;5.78;;
34902;SDS011;21114;44.840;0.214;2022-12-24T09:02:05;12.32;;;5.40;;
34902;SDS011;21114;44.840;0.214;2022-12-24T09:04:31;11.82;;;5.43;;
34902;SDS011;21114;44.840;0.214;2022-12-24T09:06:57;9.88;;;7.07;;
34902;SDS011;21114;44.840;0.214;2022-12-24T09:09:23;13.93;;;8.40;;
34902;SDS011;21114;44.840;0.214;2022-12-24T09:11:50;10.38;;;5.18;;
34902;SDS011;21114;44.840;0.214;2022-12-24T09:14:17;9.95;;;5.57;;
34902;SDS011;21114;44.840;0.214;2022-12-24T09:16:43;17.50;;;10.23;;
34902;SDS011;21114;44.840;0.214;2022-12-24T09:19:09;10.63;;;6.53;;
34902;SDS011;21114;44.840;0.214;2022-12-24T09:21:35;9.88;;;5.53;;
34902;SDS011;21114;44.840;0.214;2022-12-24T09:24:02;11.70;;;6.35;;
34902;SDS011;21114;44.840;0.214;2022-12-24T09:26:59;8.68;;;5.43;;
34902;SDS011;21114;44.840;0.214;2022-12-24T09:29:26;13.10;;;9.75;;
34902;SDS011;21114;44.840;0.214;2022-12-24T09:31:52;17.45;;;11.10;;
34902;SDS011;21114;44.840;0.214;2022-12-24T09:34:20;14.77;;;8.88;;
34902;SDS011;21114;44.840;0.214;2022-12-24T09:36:46;21.00;;;11.15;;
34902;SDS011;21114;44.840;0.214;2022-12-24T09:39:13;16.60;;;8.00;;
34902;SDS011;21114;44.840;0.214;2022-12-24T09:45:15;14.30;;;9.15;;
34902;SDS011;21114;44.840;0.214;2022-12-24T09:48:33;9.57;;;6.53;;
34902;SDS011;21114;44.840;0.214;2022-12-24T09:51:50;12.23;;;7.60;;
34902;SDS011;21114;44.840;0.214;2022-12-24T09:55:16;11.27;;;5.93;;
34902;SDS011;21114;44.840;0.214;2022-12-24T09:58:34;13.07;;;7.20;;
34902;SDS011;21114;44.840;0.214;2022-12-24T10:01:52;9.82;;;5.97;;
34902;SDS011;21114;44.840;0.214;2022-12-24T10:05:08;24.15;;;5.88;;
34902;SDS011;21114;44.840;0.214;2022-12-24T10:08:30;8.88;;;6.55;;
34902;SDS011;21114;44.840;0.214;2022-12-24T10:25:35;8.77;;;4.72;;
34902;SDS011;21114;44.840;0.214;2022-12-24T10:31:30;10.43;;;3.70;;
34902;SDS011;21114;44.840;0.214;2022-12-24T10:37:41;8.52;;;4.68;;
34902;SDS011;21114;44.840;0.214;2022-12-24T10:40:57;7.30;;;3.80;;
34902;SDS011;21114;44.840;0.214;2022-12-24T10:44:14;11.77;;;7.30;;
34902;SDS011;21114;44.840;0.214;2022-12-24T10:47:30;4.22;;;3.53;;
34902;SDS011;21114;44.840;0.214;2022-12-24T10:50:31;6.72;;;4.20;;
34902;SDS011;21114;44.840;0.214;2022-12-24T10:53:48;5.93;;;3.63;;
34902;SDS011;21114;44.840;0.214;2022-12-24T10:57:05;5.10;;;3.53;;
34902;SDS011;21114;44.840;0.214;2022-12-24T11:00:36;11.35;;;7.53;;
34902;SDS011;21114;44.840;0.214;2022-12-24T11:03:59;9.90;;;5.70;;
34902;SDS011;21114;44.840;0.214;2022-12-24T11:07:17;6.68;;;2.80;;
34902;SDS011;21114;44.840;0.214;2022-12-24T11:10:34;9.27;;;4.55;;
34902;SDS011;21114;44.840;0.214;2022-12-24T11:16:29;5.50;;;3.00;;
34902;SDS011;21114;44.840;0.214;2022-12-24T11:18:58;4.55;;;2.90;;
34902;SDS011;21114;44.840;0.214;2022-12-24T11:22:17;5.55;;;2.80;;
34902;SDS011;21114;44.840;0.214;2022-12-24T11:25:32;4.75;;;2.53;;
34902;SDS011;21114;44.840;0.214;2022-12-24T11:31:43;4.40;;;2.30;;
34902;SDS011;21114;44.840;0.214;2022-12-24T11:34:58;4.38;;;2.85;;
34902;SDS011;21114;44.840;0.214;2022-12-24T11:38:20;6.93;;;3.58;;
34902;SDS011;21114;44.840;0.214;2022-12-24T11:41:35;8.63;;;2.78;;
34902;SDS011;21114;44.840;0.214;2022-12-24T11:44:50;6.88;;;2.35;;
34902;SDS011;21114;44.840;0.214;2022-12-24T11:47:16;5.30;;;2.60;;
34902;SDS011;21114;44.840;0.214;2022-12-24T11:49:42;6.10;;;2.67;;
34902;SDS011;21114;44.840;0.214;2022-12-24T11:54:49;5.50;;;2.30;;
34902;SDS011;21114;44.840;0.214;2022-12-24T11:58:11;7.72;;;3.88;;
34902;SDS011;21114;44.840;0.214;2022-12-24T12:04:23;5.40;;;3.83;;
34902;SDS011;21114;44.840;0.214;2022-12-24T12:07:38;3.45;;;1.90;;
34902;SDS011;21114;44.840;0.214;2022-12-24T12:12:59;5.78;;;2.67;;
34902;SDS011;21114;44.840;0.214;2022-12-24T12:16:18;7.07;;;2.88;;
34902;SDS011;21114;44.840;0.214;2022-12-24T12:19:37;3.97;;;2.08;;
34902;SDS011;21114;44.840;0.214;2022-12-24T12:25:36;3.63;;;2.00;;
34902;SDS011;21114;44.840;0.214;2022-12-24T12:40:15;2.97;;;1.70;;
34902;SDS011;21114;44.840;0.214;2022-12-24T12:43:06;3.70;;;2.03;;
34902;SDS011;21114;44.840;0.214;2022-12-24T12:46:20;6.80;;;3.10;;
34902;SDS011;21114;44.840;0.214;2022-12-24T12:52:27;1.92;;;1.38;;
34902;SDS011;21114;44.840;0.214;2022-12-24T12:55:50;4.35;;;2.03;;
34902;SDS011;21114;44.840;0.214;2022-12-24T13:09:53;4.78;;;2.15;;
34902;SDS011;21114;44.840;0.214;2022-12-24T13:18:19;5.07;;;3.15;;
34902;SDS011;21114;44.840;0.214;2022-12-24T13:21:36;3.42;;;1.52;;
34902;SDS011;21114;44.840;0.214;2022-12-24T13:24:46;2.08;;;1.42;;
34902;SDS011;21114;44.840;0.214;2022-12-24T13:28:00;4.95;;;1.38;;
34902;SDS011;21114;44.840;0.214;2022-12-24T13:31:27;2.08;;;1.13;;
34902;SDS011;21114;44.840;0.214;2022-12-24T13:33:54;4.03;;;1.52;;
34902;SDS011;21114;44.840;0.214;2022-12-24T13:53:59;2.97;;;1.63;;
34902;SDS011;21114;44.840;0.214;2022-12-24T13:56:25;2.92;;;1.58;;
34902;SDS011;21114;44.840;0.214;2022-12-24T13:59:41;2.75;;;1.70;;
34902;SDS011;21114;44.840;0.214;2022-12-24T14:02:16;5.60;;;2.03;;
34902;SDS011;21114;44.840;0.214;2022-12-24T14:05:33;6.15;;;1.75;;
34902;SDS011;21114;44.840;0.214;2022-12-24T14:08:50;4.15;;;2.05;;
34902;SDS011;21114;44.840;0.214;2022-12-24T14:14:44;4.75;;;2.53;;
34902;SDS011;21114;44.840;0.214;2022-12-24T14:19:51;3.28;;;1.75;;
34902;SDS011;21114;44.840;0.214;2022-12-24T14:23:12;2.50;;;1.63;;
34902;SDS011;21114;44.840;0.214;2022-12-24T14:26:33;3.65;;;1.75;;
34902;SDS011;21114;44.840;0.214;2022-12-24T14:29:50;1.58;;;1.27;;
34902;SDS011;21114;44.840;0.214;2022-12-24T14:33:25;2.83;;;1.50;;
34902;SDS011;21114;44.840;0.214;2022-12-24T14:36:40;3.00;;;1.77;;
34902;SDS011;21114;44.840;0.214;2022-12-24T14:39:55;3.22;;;2.03;;
34902;SDS011;21114;44.840;0.214;2022-12-24T14:50:44;5.13;;;2.28;;
34902;SDS011;21114;44.840;0.214;2022-12-24T14:54:06;4.05;;;1.58;;
34902;SDS011;21114;44.840;0.214;2022-12-24T14:57:24;2.20;;;1.58;;
34902;SDS011;21114;44.840;0.214;2022-12-24T15:00:41;3.63;;;1.48;;
34902;SDS011;21114;44.840;0.214;2022-12-24T15:06:51;4.28;;;1.83;;
34902;SDS011;21114;44.840;0.214;2022-12-24T15:10:06;2.20;;;1.58;;
34902;SDS011;21114;44.840;0.214;2022-12-24T15:13:23;4.38;;;2.17;;
34902;SDS011;21114;44.840;0.214;2022-12-24T15:16:39;3.92;;;1.88;;
34902;SDS011;21114;44.840;0.214;2022-12-24T15:19:06;1.85;;;1.65;;
34902;SDS011;21114;44.840;0.214;2022-12-24T15:22:25;3.50;;;2.50;;
34902;SDS011;21114;44.840;0.214;2022-12-24T15:25:41;3.25;;;2.28;;
34902;SDS011;21114;44.840;0.214;2022-12-24T15:28:15;5.57;;;2.42;;
34902;SDS011;21114;44.840;0.214;2022-12-24T15:31:30;3.47;;;1.77;;
34902;SDS011;21114;44.840;0.214;2022-12-24T15:33:56;2.63;;;1.70;;
34902;SDS011;21114;44.840;0.214;2022-12-24T15:39:05;2.55;;;2.05;;
34902;SDS011;21114;44.840;0.214;2022-12-24T15:41:57;4.13;;;1.77;;
34902;SDS011;21114;44.840;0.214;2022-12-24T15:45:00;2.67;;;1.73;;
34902;SDS011;21114;44.840;0.214;2022-12-24T15:47:59;3.05;;;1.83;;
34902;SDS011;21114;44.840;0.214;2022-12-24T15:51:19;3.17;;;2.22;;
34902;SDS011;21114;44.840;0.214;2022-12-24T15:54:35;4.70;;;3.08;;
34902;SDS011;21114;44.840;0.214;2022-12-24T15:59:55;4.70;;;2.25;;
34902;SDS011;21114;44.840;0.214;2022-12-24T16:03:18;4.03;;;2.30;;
34902;SDS011;21114;44.840;0.214;2022-12-24T16:06:49;4.15;;;2.10;;
34902;SDS011;21114;44.840;0.214;2022-12-24T16:10:24;3.53;;;2.45;;
34902;SDS011;21114;44.840;0.214;2022-12-24T16:13:42;5.55;;;3.15;;
34902;SDS011;21114;44.840;0.214;2022-12-24T16:16:57;7.10;;;3.15;;
34902;SDS011;21114;44.840;0.214;2022-12-24T16:19:24;6.70;;;2.60;;
34902;SDS011;21114;44.840;0.214;2022-12-24T16:22:40;5.65;;;2.47;;
34902;SDS011;21114;44.840;0.214;2022-12-24T16:25:58;7.07;;;2.90;;
34902;SDS011;21114;44.840;0.214;2022-12-24T16:28:25;7.35;;;3.67;;
34902;SDS011;21114;44.840;0.214;2022-12-24T16:34:33;4.63;;;2.63;;
34902;SDS011;21114;44.840;0.214;2022-12-24T16:37:00;7.80;;;3.65;;
34902;SDS011;21114;44.840;0.214;2022-12-24T16:39:33;4.63;;;3.03;;
34902;SDS011;21114;44.840;0.214;2022-12-24T16:42:48;4.55;;;2.50;;
34902;SDS011;21114;44.840;0.214;2022-12-24T16:45:41;6.45;;;3.72;;
34902;SDS011;21114;44.840;0.214;2022-12-24T16:48:57;9.73;;;7.20;;
34902;SDS011;21114;44.840;0.214;2022-12-24T16:51:23;10.38;;;9.35;;
34902;SDS011;21114;44.840;0.214;2022-12-24T16:53:49;8.35;;;6.45;;
34902;SDS011;21114;44.840;0.214;2022-12-24T16:56:15;10.35;;;8.63;;
34902;SDS011;21114;44.840;0.214;2022-12-24T16:58:41;12.45;;;9.25;;
34902;SDS011;21114;44.840;0.214;2022-12-24T17:01:07;12.90;;;8.43;;
34902;SDS011;21114;44.840;0.214;2022-12-24T17:03:34;8.18;;;6.65;;
34902;SDS011;21114;44.840;0.214;2022-12-24T17:06:02;9.00;;;7.15;;
34902;SDS011;21114;44.840;0.214;2022-12-24T17:09:18;13.55;;;7.05;;
34902;SDS011;21114;44.840;0.214;2022-12-24T17:12:33;11.27;;;8.35;;
34902;SDS011;21114;44.840;0.214;2022-12-24T17:14:59;26.10;;;8.38;;
34902;SDS011;21114;44.840;0.214;2022-12-24T17:17:26;15.75;;;10.77;;
34902;SDS011;21114;44.840;0.214;2022-12-24T17:20:41;10.30;;;8.77;;
34902;SDS011;21114;44.840;0.214;2022-12-24T17:23:07;12.07;;;10.23;;
34902;SDS011;21114;44.840;0.214;2022-12-24T17:25:34;12.50;;;9.15;;
34902;SDS011;21114;44.840;0.214;2022-12-24T17:28:51;10.35;;;7.90;;
34902;SDS011;21114;44.840;0.214;2022-12-24T17:32:06;9.40;;;6.55;;
34902;SDS011;21114;44.840;0.214;2022-12-24T17:34:32;9.40;;;6.82;;
34902;SDS011;21114;44.840;0.214;2022-12-24T17:36:58;13.13;;;7.80;;
34902;SDS011;21114;44.840;0.214;2022-12-24T17:39:24;7.72;;;6.00;;
34902;SDS011;21114;44.840;0.214;2022-12-24T17:41:50;8.68;;;6.97;;
34902;SDS011;21114;44.840;0.214;2022-12-24T17:44:17;9.32;;;6.72;;
34902;SDS011;21114;44.840;0.214;2022-12-24T17:46:43;8.82;;;6.28;;
34902;SDS011;21114;44.840;0.214;2022-12-24T17:49:10;11.18;;;5.93;;
34902;SDS011;21114;44.840;0.214;2022-12-24T17:51:36;10.27;;;6.95;;
34902;SDS011;21114;44.840;0.214;2022-12-24T17:54:03;12.85;;;7.57;;
34902;SDS011;21114;44.840;0.214;2022-12-24T17:57:19;10.18;;;7.63;;
34902;SDS011;21114;44.840;0.214;2022-12-24T17:59:45;8.77;;;7.10;;
34902;SDS011;21114;44.840;0.214;2022-12-24T18:02:11;8.65;;;6.68;;
34902;SDS011;21114;44.840;0.214;2022-12-24T18:04:37;17.40;;;15.40;;
34902;SDS011;21114;44.840;0.214;2022-12-24T18:07:03;13.23;;;10.13;;
34902;SDS011;21114;44.840;0.214;2022-12-24T18:09:29;17.27;;;12.00;;
34902;SDS011;21114;44.840;0.214;2022-12-24T18:11:55;16.48;;;11.88;;
34902;SDS011;21114;44.840;0.214;2022-12-24T18:14:21;13.95;;;10.38;;
34902;SDS011;21114;44.840;0.214;2022-12-24T18:16:47;7.72;;;5.68;;
34902;SDS011;21114;44.840;0.214;2022-12-24T18:19:14;10.40;;;6.63;;
34902;SDS011;21114;44.840;0.214;2022-12-24T18:21:40;8.35;;;6.40;;
34902;SDS011;21114;44.840;0.214;2022-12-24T18:24:06;9.10;;;6.30;;
34902;SDS011;21114;44.840;0.214;2022-12-24T18:26:33;11.15;;;9.98;;
34902;SDS011;21114;44.840;0.214;2022-12-24T18:29:00;9.13;;;6.75;;
34902;SDS011;21114;44.840;0.214;2022-12-24T18:32:14;11.43;;;7.95;;
34902;SDS011;21114;44.840;0.214;2022-12-24T18:34:42;12.57;;;7.50;;
34902;SDS011;21114;44.840;0.214;2022-12-24T18:37:08;6.38;;;5.68;;
34902;SDS011;21114;44.840;0.214;2022-12-24T18:39:34;8.80;;;5.82;;